Time;durP1;ratioP1;P1;durP2;ratioP2;P2;SDS_P1;SDS_P2;PMS_P1;PMS_P2;Temp;Humidity;BMP_temperature;BMP_pressure;BME280_temperature;BME280_humidity;BME280_pressure;Samples;Min_cycle;Max_cycle;Signal;HPM_P1;HPM_P2
2022/03/07 00:00:26;;;;;;;111.20;105.43;;;;;;;-1.97;100.00;102117.91;5030873;28;20060;-82
2022/03/07 00:02:59;;;;;;;117.68;111.55;;;;;;;-1.95;100.00;102123.09;5020724;28;20062;-84
2022/03/07 00:05:29;;;;;;;126.40;119.82;;;;;;;-1.92;100.00;102125.41;5036959;28;20552;-83
2022/03/07 00:08:02;;;;;;;137.10;129.95;;;;;;;-1.93;100.00;102121.09;5033991;28;20041;-83
2022/03/07 00:10:35;;;;;;;140.80;133.38;;;;;;;-1.95;100.00;102126.56;5044874;28;20493;-83
2022/03/07 00:13:08;;;;;;;149.27;141.40;;;;;;;-1.97;100.00;102125.09;5028358;28;20046;-84
2022/03/07 00:15:36;;;;;;;163.18;154.48;;;;;;;-2.00;100.00;102120.06;5023773;28;20045;-83
2022/03/07 00:18:04;;;;;;;164.05;155.25;;;;;;;-2.03;100.00;102120.38;5032343;28;20060;-84
2022/03/07 00:20:39;;;;;;;179.73;170.07;;;;;;;-2.08;100.00;102116.38;5032460;28;20481;-83
2022/03/07 00:23:11;;;;;;;192.98;182.70;;;;;;;-2.09;100.00;102124.53;5033228;28;20049;-83
2022/03/07 00:25:39;;;;;;;187.88;177.77;;;;;;;-2.11;100.00;102131.88;5036242;28;20046;-83
2022/03/07 00:28:12;;;;;;;200.32;189.48;;;;;;;-2.14;100.00;102125.00;5032056;28;20508;-83
2022/03/07 00:30:45;;;;;;;206.85;195.73;;;;;;;-2.15;100.00;102128.66;5026873;28;20050;-83
2022/03/07 00:33:15;;;;;;;221.43;209.55;;;;;;;-2.16;100.00;102126.16;5041974;28;20041;-83
2022/03/07 00:35:50;;;;;;;238.55;225.70;;;;;;;-2.13;100.00;102123.19;5024235;28;20049;-83
2022/03/07 00:38:24;;;;;;;261.85;247.63;;;;;;;-2.15;100.00;102123.34;5026520;28;20068;-83
2022/03/07 00:40:57;;;;;;;287.38;271.52;;;;;;;-2.19;100.00;102126.50;5030662;28;20049;-83
2022/03/07 00:43:30;;;;;;;321.33;303.42;;;;;;;-2.17;100.00;102125.31;5049939;28;20414;-84
2022/03/07 00:46:04;;;;;;;359.38;338.45;;;;;;;-2.15;100.00;102118.00;5040850;28;20051;-83
2022/03/07 00:48:37;;;;;;;412.98;388.35;;;;;;;-2.14;100.00;102121.50;5033762;28;20049;-84
2022/03/07 00:51:07;;;;;;;497.70;466.80;;;;;;;-2.18;100.00;102134.34;5034090;28;20049;-84
2022/03/07 00:53:40;;;;;;;554.25;518.85;;;;;;;-2.18;100.00;102131.66;5029647;28;20046;-84
2022/03/07 00:56:13;;;;;;;647.25;604.80;;;;;;;-2.14;100.00;102132.16;5034358;28;20052;-83
2022/03/07 00:58:47;;;;;;;729.67;680.58;;;;;;;-2.13;100.00;102125.84;5032781;28;20046;-83
2022/03/07 01:01:15;;;;;;;849.78;790.97;;;;;;;-2.09;100.00;102124.53;5032467;28;20133;-83
2022/03/07 01:03:50;;;;;;;925.80;860.05;;;;;;;-2.10;100.00;102120.19;5013410;28;20674;-84
2022/03/07 01:06:25;;;;;;;1015.45;941.08;;;;;;;-2.17;100.00;102116.50;5020596;28;20045;-83
2022/03/07 01:08:58;;;;;;;1051.90;973.22;;;;;;;-2.13;100.00;102129.34;5033683;28;20092;-84
2022/03/07 01:11:31;;;;;;;1070.00;988.65;;;;;;;-2.16;100.00;102135.00;5033992;28;20548;-83
2022/03/07 01:13:59;;;;;;;1092.60;999.70;;;;;;;-2.15;100.00;102133.19;5034131;28;20046;-83
2022/03/07 01:16:32;;;;;;;1120.55;999.90;;;;;;;-2.16;100.00;102139.50;5032946;28;20046;-84
2022/03/07 01:19:05;;;;;;;1138.75;999.90;;;;;;;-2.34;100.00;102119.06;5020035;28;20483;-84
2022/03/07 01:21:40;;;;;;;1151.30;999.90;;;;;;;-2.23;100.00;102147.31;5014036;28;20387;-83
2022/03/07 01:24:13;;;;;;;1155.43;999.90;;;;;;;-2.23;100.00;102137.47;5032625;28;20060;-84
2022/03/07 01:26:47;;;;;;;1168.15;999.90;;;;;;;-2.24;100.00;102140.28;5032434;28;20057;-84
2022/03/07 01:29:20;;;;;;;1169.25;999.90;;;;;;;-2.25;100.00;102136.78;5018430;28;20054;-84
2022/03/07 01:31:53;;;;;;;1176.78;999.90;;;;;;;-2.26;100.00;102129.78;5021154;28;20591;-84
2022/03/07 01:34:21;;;;;;;1178.47;999.90;;;;;;;-2.24;100.00;102129.63;5032387;28;20053;-84
2022/03/07 01:36:55;;;;;;;1183.53;999.90;;;;;;;-2.28;100.00;102131.78;5032239;28;20363;-84
2022/03/07 01:39:29;;;;;;;1182.60;999.90;;;;;;;-2.32;100.00;102133.09;5028592;28;20057;-83
2022/03/07 01:41:57;;;;;;;1180.57;999.90;;;;;;;-2.40;100.00;102117.06;5013691;28;20061;-83
2022/03/07 01:44:30;;;;;;;1181.72;999.90;;;;;;;-2.41;100.00;102123.38;5019966;28;20049;-84
2022/03/07 01:46:58;;;;;;;1182.32;999.90;;;;;;;-2.48;100.00;102125.00;5030405;28;20121;-84
2022/03/07 01:49:32;;;;;;;1185.88;999.90;;;;;;;-2.48;100.00;102119.69;5016700;28;20052;-84
2022/03/07 01:52:08;;;;;;;1183.55;999.90;;;;;;;-2.46;100.00;102117.66;5015218;28;20045;-84
2022/03/07 01:54:42;;;;;;;1182.13;999.90;;;;;;;-2.47;100.00;102121.31;5012346;28;20042;-84
2022/03/07 01:57:13;;;;;;;1187.53;999.90;;;;;;;-2.43;100.00;102118.19;5013542;28;20050;-84
2022/03/07 01:59:41;;;;;;;1192.35;999.90;;;;;;;-2.46;100.00;102109.66;5011677;28;20046;-84
2022/03/07 02:02:14;;;;;;;1190.05;999.90;;;;;;;-2.45;100.00;102106.84;5012256;28;20061;-84
2022/03/07 02:04:48;;;;;;;1190.60;999.90;;;;;;;-2.41;100.00;102120.72;5019466;28;20710;-84
2022/03/07 02:07:18;;;;;;;1198.28;999.90;;;;;;;-2.48;100.00;102117.84;5017687;28;20057;-84
2022/03/07 02:09:46;;;;;;;1205.72;999.90;;;;;;;-2.47;100.00;102105.31;5031291;28;20064;-84
2022/03/07 02:12:21;;;;;;;1202.05;999.90;;;;;;;-2.50;100.00;102116.31;5031563;28;20421;-84
2022/03/07 02:14:54;;;;;;;1207.20;999.90;;;;;;;-2.49;100.00;102108.16;5031901;28;20048;-84
2022/03/07 02:17:29;;;;;;;1207.93;999.90;;;;;;;-2.52;100.00;102099.66;5032489;28;20037;-84
2022/03/07 02:20:02;;;;;;;1206.75;999.90;;;;;;;-2.53;100.00;102109.47;5031190;28;20049;-83
2022/03/07 02:22:37;;;;;;;1210.47;999.90;;;;;;;-2.49;100.00;102105.50;5029424;28;20128;-84
2022/03/07 02:25:11;;;;;;;1216.15;999.90;;;;;;;-2.44;100.00;102089.03;5011639;28;20046;-84
2022/03/07 02:27:44;;;;;;;1218.60;999.90;;;;;;;-2.48;100.00;102088.50;5011605;28;20054;-84
2022/03/07 02:30:17;;;;;;;1219.43;999.90;;;;;;;-2.51;100.00;102095.97;5011779;28;20418;-84
2022/03/07 02:32:51;;;;;;;1225.00;999.90;;;;;;;-2.57;100.00;102092.13;5012069;28;20054;-83
2022/03/07 02:35:25;;;;;;;1222.97;999.90;;;;;;;-2.63;100.00;102096.25;5020404;28;20520;-83
2022/03/07 02:38:00;;;;;;;1222.90;999.90;;;;;;;-2.62;100.00;102097.94;5013176;28;20054;-83
2022/03/07 02:40:33;;;;;;;1222.38;999.90;;;;;;;-2.60;100.00;102092.44;5013605;28;20034;-83
2022/03/07 02:43:02;;;;;;;1227.38;999.90;;;;;;;-2.64;100.00;102101.75;5012092;28;20057;-83
2022/03/07 02:45:30;;;;;;;1229.80;999.90;;;;;;;-2.65;100.00;102103.56;5031090;28;20053;-83
2022/03/07 02:48:03;;;;;;;1229.80;999.90;;;;;;;-2.62;100.00;102103.25;5031940;28;20486;-84
2022/03/07 02:50:36;;;;;;;1227.43;999.90;;;;;;;-2.65;100.00;102102.72;5032209;28;20041;-84
2022/03/07 02:53:11;;;;;;;1228.20;999.90;;;;;;;-2.66;100.00;102109.91;5030852;28;20045;-83
2022/03/07 02:55:44;;;;;;;1234.15;999.90;;;;;;;-2.68;100.00;102105.72;5031871;28;20049;-84
2022/03/07 02:58:17;;;;;;;1232.38;999.90;;;;;;;-2.71;100.00;102106.03;5037837;28;20052;-83
2022/03/07 03:00:50;;;;;;;1236.07;999.90;;;;;;;-2.77;100.00;102105.66;5026735;28;20044;-83
2022/03/07 03:03:24;;;;;;;1235.78;999.90;;;;;;;-2.77;100.00;102105.66;5029722;28;20052;-84
2022/03/07 03:05:57;;;;;;;1234.57;999.90;;;;;;;-2.80;100.00;102097.97;5027057;28;20056;-83
2022/03/07 03:08:31;;;;;;;1238.13;999.90;;;;;;;-2.81;100.00;102108.78;5027718;28;20551;-83
2022/03/07 03:11:01;;;;;;;1237.30;999.90;;;;;;;-2.76;100.00;102110.00;5027760;28;20041;-83
2022/03/07 03:13:29;;;;;;;1239.05;999.90;;;;;;;-2.87;100.00;102096.09;5030106;28;20045;-83
2022/03/07 03:16:03;;;;;;;1241.90;999.90;;;;;;;-2.84;100.00;102104.63;5027831;28;20041;-83
2022/03/07 03:18:36;;;;;;;1240.57;999.90;;;;;;;-2.79;100.00;102109.47;5022570;28;20048;-82
2022/03/07 03:21:04;;;;;;;1243.32;999.90;;;;;;;-2.81;100.00;102116.78;5025757;28;20057;-83
2022/03/07 03:23:39;;;;;;;1240.90;999.90;;;;;;;-2.84;100.00;102120.59;5020319;28;20057;-83
2022/03/07 03:26:12;;;;;;;1242.22;999.90;;;;;;;-2.85;100.00;102116.25;5019320;28;20474;-83
2022/03/07 03:28:45;;;;;;;1240.60;999.90;;;;;;;-2.97;100.00;102097.03;5029887;28;20049;-84
2022/03/07 03:31:13;;;;;;;1243.43;999.90;;;;;;;-2.94;100.00;102112.69;5022173;28;20645;-83
2022/03/07 03:33:46;;;;;;;1245.78;999.90;;;;;;;-2.94;100.00;102110.03;5025698;28;20038;-83
2022/03/07 03:36:19;;;;;;;1247.43;999.90;;;;;;;-2.95;100.00;102107.53;5028849;28;20057;-84
2022/03/07 03:38:49;;;;;;;1246.35;999.90;;;;;;;-2.95;100.00;102110.19;5030050;28;20053;-83
2022/03/07 03:41:22;;;;;;;1246.93;999.90;;;;;;;-2.94;100.00;102110.03;5031542;28;20044;-83
2022/03/07 03:43:55;;;;;;;1247.72;999.90;;;;;;;-2.95;100.00;102116.34;5030249;28;20053;-83
2022/03/07 03:46:28;;;;;;;1250.47;999.90;;;;;;;-2.93;100.00;102117.03;5029473;28;20049;-83
2022/03/07 03:49:01;;;;;;;1248.20;999.90;;;;;;;-2.79;100.00;102126.31;5025877;28;20509;-83
2022/03/07 03:51:35;;;;;;;1251.68;999.90;;;;;;;-2.77;100.00;102132.31;5025560;28;20393;-83
2022/03/07 03:54:09;;;;;;;1251.45;999.90;;;;;;;-2.76;100.00;102138.50;5024102;28;20053;-83
2022/03/07 03:56:42;;;;;;;1251.93;999.90;;;;;;;-2.79;100.00;102126.31;5027884;28;20065;-83
2022/03/07 03:59:15;;;;;;;1250.45;999.90;;;;;;;-2.84;100.00;102125.94;5029936;28;20053;-83
2022/03/07 04:01:45;;;;;;;1252.97;999.90;;;;;;;-2.85;100.00;102128.75;5030643;28;20045;-83
2022/03/07 04:04:18;;;;;;;1251.35;999.90;;;;;;;-2.88;100.00;102118.41;5032401;28;20053;-83
2022/03/07 04:06:51;;;;;;;1250.95;999.90;;;;;;;-2.94;100.00;102138.50;5030998;28;20526;-82
2022/03/07 04:09:26;;;;;;;1252.05;999.90;;;;;;;-3.04;100.00;102138.56;5031701;28;20785;-83
2022/03/07 04:11:59;;;;;;;1251.07;999.90;;;;;;;-3.01;100.00;102140.09;5033152;28;20064;-83
2022/03/07 04:14:32;;;;;;;1251.97;999.90;;;;;;;-3.05;100.00;102136.06;5026554;28;20050;-82
2022/03/07 04:17:00;;;;;;;1255.30;999.90;;;;;;;-3.10;100.00;102126.72;5034936;28;20048;-83
2022/03/07 04:19:33;;;;;;;1252.35;999.90;;;;;;;-3.15;100.00;102130.81;5033676;28;20390;-83
2022/03/07 04:22:01;;;;;;;1251.38;999.90;;;;;;;-3.13;100.00;102123.53;5030541;28;20406;-83
2022/03/07 04:24:36;;;;;;;1254.10;999.90;;;;;;;-3.14;100.00;102124.53;5029221;28;20734;-82
2022/03/07 04:27:10;;;;;;;1250.40;999.90;;;;;;;-3.18;100.00;102116.00;5033204;28;20445;-83
2022/03/07 04:29:43;;;;;;;1252.05;999.90;;;;;;;-3.15;100.00;102133.50;5034603;28;20064;-83
2022/03/07 04:32:17;;;;;;;1254.28;999.90;;;;;;;-3.21;100.00;102118.97;5025289;28;20042;-82
2022/03/07 04:34:50;;;;;;;1252.18;999.90;;;;;;;-3.14;100.00;102122.69;5028326;28;20041;-82
2022/03/07 04:37:23;;;;;;;1252.75;999.90;;;;;;;-3.24;100.00;102113.94;5032596;28;20056;-82
2022/03/07 04:39:52;;;;;;;1254.13;999.90;;;;;;;-3.17;100.00;102120.34;5032817;28;20409;-82
2022/03/07 04:42:21;;;;;;;1252.55;999.90;;;;;;;-3.23;100.00;102118.28;5030737;28;20050;-82
2022/03/07 04:44:54;;;;;;;1256.78;999.90;;;;;;;-3.24;100.00;102116.63;5047639;28;20371;-82
2022/03/07 04:47:27;;;;;;;1256.85;999.90;;;;;;;-3.20;100.00;102109.13;5032632;28;20049;-82
2022/03/07 04:50:00;;;;;;;1255.65;999.90;;;;;;;-3.21;100.00;102118.97;5034179;28;20072;-83
2022/03/07 04:52:34;;;;;;;1255.45;999.90;;;;;;;-3.21;100.00;102116.31;5029235;28;20038;-83
2022/03/07 04:55:09;;;;;;;1257.28;999.90;;;;;;;-3.18;100.00;102115.16;5026475;28;20494;-83
2022/03/07 04:57:44;;;;;;;1255.45;999.90;;;;;;;-3.22;100.00;102113.78;5017971;28;20050;-83
2022/03/07 05:00:17;;;;;;;1260.97;999.90;;;;;;;-3.20;100.00;102102.00;5030445;28;20046;-82
2022/03/07 05:02:51;;;;;;;1261.68;999.90;;;;;;;-3.13;100.00;102116.38;5034344;28;20431;-82
2022/03/07 05:05:24;;;;;;;1259.70;999.90;;;;;;;-3.12;100.00;102122.53;5032420;28;20057;-82
2022/03/07 05:07:53;;;;;;;1260.22;999.90;;;;;;;-3.14;100.00;102120.03;5032269;28;20038;-82
2022/03/07 05:10:27;;;;;;;1263.10;999.90;;;;;;;-3.14;100.00;102129.84;5030808;28;20045;-82
2022/03/07 05:13:00;;;;;;;1263.47;999.90;;;;;;;-3.17;100.00;102130.97;5020739;28;20498;-82
2022/03/07 05:15:34;;;;;;;1263.93;999.90;;;;;;;-3.19;100.00;102124.13;5029289;28;20417;-82
2022/03/07 05:18:07;;;;;;;1260.28;999.90;;;;;;;-3.21;100.00;102129.63;5032658;28;20418;-82
2022/03/07 05:20:40;;;;;;;1260.72;999.90;;;;;;;-3.16;100.00;102127.34;5027930;28;20137;-83
2022/03/07 05:23:13;;;;;;;1263.10;999.90;;;;;;;-3.20;100.00;102123.31;5028440;28;20132;-82
2022/03/07 05:25:48;;;;;;;1263.93;999.90;;;;;;;-3.10;100.00;102140.03;5020359;28;20060;-82
2022/03/07 05:28:21;;;;;;;1264.07;999.90;;;;;;;-3.11;100.00;102138.38;5028735;28;20504;-82
2022/03/07 05:30:49;;;;;;;1264.68;999.90;;;;;;;-3.11;100.00;102135.72;5022615;28;20053;-82
2022/03/07 05:33:22;;;;;;;1263.85;999.90;;;;;;;-3.16;100.00;102132.66;5032035;28;20052;-83
2022/03/07 05:35:50;;;;;;;1264.20;999.90;;;;;;;-3.12;100.00;102143.84;5028573;28;20061;-83
2022/03/07 05:38:23;;;;;;;1264.63;999.90;;;;;;;-3.30;100.00;102117.22;5030443;28;20053;-82
2022/03/07 05:40:53;;;;;;;1265.70;999.90;;;;;;;-3.15;100.00;102147.66;5032070;28;20056;-82
2022/03/07 05:43:21;;;;;;;1261.68;999.90;;;;;;;-3.14;100.00;102143.16;5031660;28;20048;-82
2022/03/07 05:45:54;;;;;;;1266.93;999.90;;;;;;;-3.16;100.00;102145.97;5028000;28;20045;-82
2022/03/07 05:48:27;;;;;;;1265.78;999.90;;;;;;;-3.17;100.00;102138.97;5035803;28;20652;-83
2022/03/07 05:51:00;;;;;;;1264.57;999.90;;;;;;;-3.18;100.00;102141.78;5027278;28;20053;-82
2022/03/07 05:53:33;;;;;;;1266.78;999.90;;;;;;;-3.12;100.00;102142.03;5030231;28;20045;-82
2022/03/07 05:56:04;;;;;;;1266.55;999.90;;;;;;;-3.14;100.00;102143.97;5019409;28;20070;-82
2022/03/07 05:58:37;;;;;;;1271.93;999.90;;;;;;;-3.16;100.00;102138.00;5023718;28;20044;-83
2022/03/07 06:01:10;;;;;;;1267.15;999.90;;;;;;;-3.13;100.00;102140.34;5027544;28;20394;-82
2022/03/07 06:03:43;;;;;;;1265.90;999.90;;;;;;;-3.17;100.00;102125.66;5026230;28;20049;-83
2022/03/07 06:06:16;;;;;;;1268.65;999.90;;;;;;;-3.14;100.00;102143.97;5024942;28;20050;-82
2022/03/07 06:08:49;;;;;;;1268.85;999.90;;;;;;;-3.12;100.00;102143.84;5027095;28;20049;-82
2022/03/07 06:11:24;;;;;;;1269.85;999.90;;;;;;;-3.17;100.00;102128.31;5023517;28;20510;-82
2022/03/07 06:13:52;;;;;;;1270.10;999.90;;;;;;;-2.96;100.00;102141.31;5021790;28;20041;-83
2022/03/07 06:16:25;;;;;;;1269.93;999.90;;;;;;;-2.95;100.00;102127.00;5024043;28;20483;-82
2022/03/07 06:18:58;;;;;;;1274.60;999.90;;;;;;;-2.75;100.00;102145.47;5030959;28;20049;-82
2022/03/07 06:21:31;;;;;;;1272.13;999.90;;;;;;;-2.53;100.00;102138.78;5031690;28;20049;-82
2022/03/07 06:24:05;;;;;;;1269.60;999.90;;;;;;;-2.53;100.00;102143.28;5027619;28;20049;-82
2022/03/07 06:26:39;;;;;;;1270.10;999.90;;;;;;;-2.49;100.00;102156.13;5019420;28;20497;-82
2022/03/07 06:29:13;;;;;;;1265.53;999.90;;;;;;;-2.46;100.00;102157.66;5025562;28;20081;-82
2022/03/07 06:31:41;;;;;;;1264.80;999.90;;;;;;;-2.50;100.00;102142.97;5031096;28;20053;-83
2022/03/07 06:34:14;;;;;;;1262.43;999.90;;;;;;;-2.48;100.00;102149.81;5032555;28;20405;-82
2022/03/07 06:36:47;;;;;;;1264.07;999.90;;;;;;;-2.45;100.00;102146.00;5021653;28;20418;-82
2022/03/07 06:39:25;;;;;;;1260.60;999.90;;;;;;;-2.44;100.00;102151.19;5028750;28;20049;-82
2022/03/07 06:41:59;;;;;;;1265.10;999.90;;;;;;;-2.47;100.00;102145.31;5026433;28;20049;-83
2022/03/07 06:44:33;;;;;;;1262.35;999.90;;;;;;;-2.48;100.00;102149.81;5044901;28;20382;-83
2022/03/07 06:47:01;;;;;;;1267.63;999.90;;;;;;;-2.43;100.00;102150.19;5026585;28;20445;-82
2022/03/07 06:49:35;;;;;;;1266.50;999.90;;;;;;;-2.39;100.00;102137.38;5022723;28;20041;-82
2022/03/07 06:52:08;;;;;;;1269.88;999.90;;;;;;;-2.36;100.00;102142.41;5020240;28;20052;-82
2022/03/07 06:54:36;;;;;;;1272.40;999.90;;;;;;;-2.30;100.00;102146.28;5030249;28;20041;-82
2022/03/07 06:57:05;;;;;;;1273.25;999.90;;;;;;;-2.27;100.00;102144.09;5024787;28;20045;-82
2022/03/07 06:59:38;;;;;;;1272.25;999.90;;;;;;;-2.19;100.00;102143.31;5026274;28;20054;-82
2022/03/07 07:02:07;;;;;;;1274.35;999.90;;;;;;;-2.15;100.00;102134.00;5020536;28;20049;-82
2022/03/07 07:04:40;;;;;;;1276.65;999.90;;;;;;;-2.14;100.00;102130.34;5021527;28;20076;-82
2022/03/07 07:07:14;;;;;;;1276.25;999.90;;;;;;;-2.00;100.00;102133.38;5016314;28;20096;-82
2022/03/07 07:09:47;;;;;;;1279.80;999.90;;;;;;;-1.91;100.00;102140.44;5021523;28;20045;-82
2022/03/07 07:12:22;;;;;;;1279.28;999.90;;;;;;;-1.80;100.00;102134.81;5024721;28;20050;-82
2022/03/07 07:14:55;;;;;;;1279.20;999.90;;;;;;;-1.67;100.00;102130.84;5026001;28;20620;-83
2022/03/07 07:17:23;;;;;;;1275.10;999.90;;;;;;;-1.61;100.00;102138.22;5030700;28;20053;-82
2022/03/07 07:19:52;;;;;;;1278.88;999.90;;;;;;;-1.47;100.00;102137.56;5028371;28;20049;-82
2022/03/07 07:22:25;;;;;;;1274.15;999.90;;;;;;;-1.39;100.00;102142.09;5023847;28;20045;-82
2022/03/07 07:24:58;;;;;;;1274.15;999.90;;;;;;;-1.32;100.00;102142.28;5022107;28;20069;-82
2022/03/07 07:27:32;;;;;;;1278.28;999.90;;;;;;;-1.26;100.00;102147.78;5021588;28;20045;-82
2022/03/07 07:30:08;;;;;;;1277.65;999.90;;;;;;;-1.17;100.00;102158.47;5022327;28;20505;-81
2022/03/07 07:32:38;;;;;;;1275.22;999.90;;;;;;;-1.09;100.00;102156.66;5026046;28;20490;-82
2022/03/07 07:35:08;;;;;;;1278.75;999.90;;;;;;;-1.00;100.00;102167.34;5023545;28;20478;-81
2022/03/07 07:37:41;;;;;;;1284.78;999.90;;;;;;;-0.94;100.00;102162.19;5022135;28;20037;-83
2022/03/07 07:40:14;;;;;;;1284.88;999.90;;;;;;;-0.79;100.00;102173.00;5025123;28;20057;-82
2022/03/07 07:42:49;;;;;;;1283.78;999.90;;;;;;;-0.71;100.00;102162.31;5021391;28;20053;-83
2022/03/07 07:45:22;;;;;;;1286.60;999.90;;;;;;;-0.68;100.00;102169.19;5026628;28;20478;-82
2022/03/07 07:47:57;;;;;;;1291.55;999.90;;;;;;;-0.61;100.00;102170.16;5030316;28;20323;-82
2022/03/07 07:50:30;;;;;;;1297.07;999.90;;;;;;;-0.65;100.00;102165.34;5021586;28;20053;-82
2022/03/07 07:52:58;;;;;;;1304.40;999.90;;;;;;;-0.57;100.00;102174.16;5029455;28;20070;-84
2022/03/07 07:55:31;;;;;;;1311.82;999.90;;;;;;;-0.54;100.00;102164.97;5035635;28;20061;-86
2022/03/07 07:58:06;;;;;;;1312.95;999.90;;;;;;;-0.40;100.00;102171.47;5033312;28;20068;-85
2022/03/07 08:00:39;;;;;;;1321.15;999.90;;;;;;;-0.52;100.00;102142.41;5031381;28;20049;-84
2022/03/07 08:03:13;;;;;;;1324.03;999.90;;;;;;;-0.18;100.00;102180.63;5020433;28;20037;-82
2022/03/07 08:05:41;;;;;;;1330.15;999.90;;;;;;;0.00;100.00;102185.78;5028718;28;20045;-85
2022/03/07 08:08:14;;;;;;;1329.68;999.90;;;;;;;-0.08;100.00;102159.88;5015589;28;20319;-84
2022/03/07 08:10:47;;;;;;;1338.68;999.90;;;;;;;-0.01;100.00;102182.25;5018172;28;20041;-82
2022/03/07 08:13:22;;;;;;;1342.82;999.90;;;;;;;0.06;100.00;102195.78;5019832;28;20053;-83
2022/03/07 08:15:50;;;;;;;1343.95;999.90;;;;;;;0.21;100.00;102181.66;5015765;28;20053;-83
2022/03/07 08:18:18;;;;;;;1348.25;999.90;;;;;;;0.20;100.00;102186.19;5013694;28;20049;-83
2022/03/07 08:20:51;;;;;;;1355.03;999.90;;;;;;;0.40;100.00;102170.56;5016932;28;20041;-84
2022/03/07 08:23:19;;;;;;;1358.18;999.90;;;;;;;0.33;100.00;102172.25;5011119;28;20060;-84
2022/03/07 08:25:53;;;;;;;1359.28;999.90;;;;;;;0.56;100.00;102176.81;5012012;28;20414;-83
2022/03/07 08:28:27;;;;;;;1363.22;999.90;;;;;;;0.48;100.00;102186.59;5016528;28;20053;-84
2022/03/07 08:31:00;;;;;;;1368.93;999.90;;;;;;;0.61;100.00;102180.66;5011397;28;20056;-84
2022/03/07 08:33:33;;;;;;;1373.47;999.90;;;;;;;0.44;100.00;102154.94;5017403;28;20394;-84
2022/03/07 08:36:07;;;;;;;1377.82;999.90;;;;;;;0.71;100.00;102187.63;5023012;28;20053;-84
2022/03/07 08:38:35;;;;;;;1376.72;999.90;;;;;;;0.63;100.00;102164.38;5011415;28;20076;-85
2022/03/07 08:41:09;;;;;;;1382.82;999.90;;;;;;;0.87;100.00;102173.28;5015474;28;20049;-84
2022/03/07 08:43:45;;;;;;;1383.38;999.90;;;;;;;0.90;100.00;102189.00;5015452;28;20053;-84
2022/03/07 08:46:19;;;;;;;1386.53;999.90;;;;;;;0.97;100.00;102188.13;5012301;28;20057;-84
2022/03/07 08:48:52;;;;;;;1387.65;999.90;;;;;;;1.05;100.00;102191.75;5011118;28;20049;-84
2022/03/07 08:51:25;;;;;;;1392.55;999.90;;;;;;;1.13;100.00;102202.41;5015714;28;20079;-84
2022/03/07 08:53:53;;;;;;;1399.40;999.90;;;;;;;1.19;100.00;102209.75;5010824;28;20057;-83
2022/03/07 08:56:27;;;;;;;1405.13;999.90;;;;;;;1.38;100.00;102204.91;5015449;28;20057;-87
2022/03/07 08:59:02;;;;;;;1409.90;999.90;;;;;;;1.03;100.00;102162.44;5012269;28;20822;-84
2022/03/07 09:01:36;;;;;;;1421.20;999.90;;;;;;;1.45;100.00;102193.28;5013726;28;20060;-83
2022/03/07 09:04:09;;;;;;;1412.78;999.90;;;;;;;1.29;100.00;102196.91;5018963;28;20060;-85
2022/03/07 09:06:43;;;;;;;1429.57;999.90;;;;;;;1.42;100.00;102196.28;5017274;28;20600;-85
2022/03/07 09:09:11;;;;;;;1420.50;999.90;;;;;;;1.45;100.00;102203.16;5015956;28;20054;-83
2022/03/07 09:11:44;;;;;;;1428.30;999.90;;;;;;;1.55;100.00;102189.47;5016283;28;20068;-83
2022/03/07 09:14:19;;;;;;;1427.43;999.90;;;;;;;1.61;100.00;102205.69;5010335;28;20091;-82
2022/03/07 09:16:52;;;;;;;1431.43;999.90;;;;;;;1.69;100.00;102200.25;5009243;28;20054;-83
2022/03/07 09:19:25;;;;;;;1426.57;999.90;;;;;;;1.65;100.00;102200.78;5008375;28;20058;-82
2022/03/07 09:21:58;;;;;;;1420.35;999.90;;;;;;;1.51;100.00;102167.56;5010120;28;20528;-82
2022/03/07 09:24:31;;;;;;;1409.00;999.90;;;;;;;1.71;100.00;102202.72;5008806;28;20057;-83
2022/03/07 09:27:05;;;;;;;1405.75;999.90;;;;;;;1.84;100.00;102196.75;5009633;28;20057;-83
2022/03/07 09:29:39;;;;;;;1401.68;999.90;;;;;;;1.84;100.00;102191.38;5007388;28;20057;-82
2022/03/07 09:32:07;;;;;;;1394.05;999.90;;;;;;;1.72;100.00;102174.88;5016002;28;20053;-83
2022/03/07 09:34:41;;;;;;;1390.32;999.90;;;;;;;2.09;100.00;102209.91;5016377;28;20056;-83
2022/03/07 09:37:17;;;;;;;1389.43;999.90;;;;;;;2.21;100.00;102209.25;5011316;28;20695;-84
2022/03/07 09:39:50;;;;;;;1386.38;999.90;;;;;;;2.16;100.00;102208.13;5010117;28;20049;-82
2022/03/07 09:42:24;;;;;;;1379.50;999.90;;;;;;;2.32;100.00;102215.16;5014817;28;20060;-85
2022/03/07 09:44:54;;;;;;;1377.20;999.90;;;;;;;2.27;100.00;102214.91;5018352;28;20462;-84
2022/03/07 09:47:22;;;;;;;1374.63;999.90;;;;;;;2.34;100.00;102205.88;5017669;28;20050;-87
2022/03/07 09:49:52;;;;;;;1367.53;999.90;;;;;;;2.35;100.00;102198.69;5007847;28;20049;-84
2022/03/07 09:52:25;;;;;;;1356.82;999.90;;;;;;;2.25;100.00;102209.72;5016186;28;20721;-85
2022/03/07 09:54:53;;;;;;;1343.90;999.90;;;;;;;2.29;100.00;102176.09;5014557;28;20046;-85
2022/03/07 09:57:22;;;;;;;1338.07;999.90;;;;;;;2.43;100.00;102203.94;5020566;28;20072;-85
2022/03/07 09:59:50;;;;;;;1322.90;999.90;;;;;;;2.31;100.00;102171.34;5015238;28;20053;-84
2022/03/07 10:02:25;;;;;;;1316.75;999.90;;;;;;;2.63;100.00;102206.03;5008892;28;20068;-83
2022/03/07 10:04:54;;;;;;;1310.97;999.90;;;;;;;2.51;100.00;102194.94;5009047;28;20065;-83
2022/03/07 10:07:27;;;;;;;1302.78;999.90;;;;;;;2.65;100.00;102198.59;5008349;28;20061;-84
2022/03/07 10:10:06;;;;;;;1293.28;999.90;;;;;;;2.59;100.00;102208.25;5012710;28;20059;-84
2022/03/07 10:12:34;;;;;;;1276.88;999.90;;;;;;;2.92;100.00;102194.34;5014246;28;20060;-83
2022/03/07 10:15:12;;;;;;;1272.55;999.90;;;;;;;2.82;100.00;102200.03;5018064;28;20064;-85
2022/03/07 10:17:47;;;;;;;1250.75;999.90;;;;;;;2.91;100.00;102208.81;5010694;28;20517;-85
2022/03/07 10:20:23;;;;;;;1227.72;999.90;;;;;;;3.20;100.00;102204.34;5010912;28;20056;-84
2022/03/07 10:22:53;;;;;;;1208.68;999.90;;;;;;;3.11;100.00;102192.88;5014038;28;20053;-84
2022/03/07 10:25:26;;;;;;;1198.22;999.90;;;;;;;3.12;100.00;102213.41;5016421;28;20060;-84
2022/03/07 10:27:55;;;;;;;1174.10;999.90;;;;;;;3.28;100.00;102211.47;5009764;28;20123;-84
2022/03/07 10:30:31;;;;;;;982.28;911.20;;;;;;;3.25;100.00;102223.44;5009746;28;20053;-86
2022/03/07 10:33:07;;;;;;;609.95;570.35;;;;;;;3.12;100.00;102194.56;5014118;28;20065;-84
2022/03/07 10:35:37;;;;;;;311.83;294.67;;;;;;;3.47;100.00;102218.03;5010211;28;20041;-84
2022/03/07 10:38:13;;;;;;;235.27;222.65;;;;;;;3.48;100.00;102204.41;5016225;28;20061;-85
2022/03/07 10:40:47;;;;;;;119.88;113.70;;;;;;;3.54;100.00;102206.28;5013004;28;20054;-83
2022/03/07 10:43:17;;;;;;;53.00;50.15;;;;;;;3.82;100.00;102226.19;5015793;28;20054;-84
2022/03/07 10:45:53;;;;;;;50.83;48.13;;;;;;;3.63;100.00;102193.50;5010324;28;20061;-83
2022/03/07 10:48:24;;;;;;;39.92;37.78;;;;;;;3.96;100.00;102209.06;5007907;28;21362;-83
2022/03/07 10:50:59;;;;;;;35.80;33.85;;;;;;;3.86;100.00;102220.19;5009427;28;20045;-83
2022/03/07 10:53:41;;;;;;;28.90;27.30;;;;;;;4.04;100.00;102222.38;5008654;28;20054;-83
2022/03/07 10:56:16;;;;;;;21.67;20.45;;;;;;;4.00;100.00;102204.94;5010883;28;20057;-83
2022/03/07 10:58:52;;;;;;;16.73;15.73;;;;;;;3.84;100.00;102186.41;5014178;28;20041;-82
2022/03/07 11:01:29;;;;;;;14.23;13.32;;;;;;;4.29;100.00;102215.69;4986821;28;20069;-83
2022/03/07 11:03:59;;;;;;;10.10;9.40;;;;;;;4.16;100.00;102211.06;5008045;28;20061;-84